Time;durP1;ratioP1;P1;durP2;ratioP2;P2;SDS_P1;SDS_P2;PMS_P1;PMS_P2;Temp;Humidity;BMP_temperature;BMP_pressure;BME280_temperature;BME280_humidity;BME280_pressure;Samples;Min_cycle;Max_cycle;Signal;HPM_P1;HPM_P2
2023/09/06 00:00:42;;;;;;;6.30;5.40;;;;;;;17.57;84.46;100351.03;104277;1275;71110;-60
2023/09/06 00:03:10;;;;;;;5.90;5.00;;;;;;;17.52;85.43;100353.68;104229;1253;59883;-61
2023/09/06 00:05:41;;;;;;;6.80;5.10;;;;;;;17.47;86.85;100347.94;104405;1253;59819;-60
2023/09/06 00:08:09;;;;;;;10.90;5.70;;;;;;;17.46;87.40;100351.73;104451;1252;73016;-60
2023/09/06 00:10:38;;;;;;;5.10;4.70;;;;;;;17.46;87.59;100349.58;104361;1267;69571;-60
2023/09/06 00:13:07;;;;;;;7.20;5.10;;;;;;;17.46;87.51;100350.98;104286;1257;72346;-61
2023/09/06 00:15:34;;;;;;;5.40;4.90;;;;;;;17.45;87.17;100350.88;104415;1260;61972;-61
2023/09/06 00:18:03;;;;;;;7.60;5.10;;;;;;;17.43;87.65;100350.45;104300;1257;60923;-60
2023/09/06 00:20:30;;;;;;;5.30;4.80;;;;;;;17.45;87.12;100350.34;104276;1274;71810;-60
2023/09/06 00:22:58;;;;;;;6.80;5.50;;;;;;;17.42;87.45;100350.33;104257;1258;69952;-60
2023/09/06 00:25:26;;;;;;;5.40;4.90;;;;;;;17.40;88.10;100348.02;104450;1252;73272;-60
2023/09/06 00:27:54;;;;;;;5.90;5.30;;;;;;;17.35;89.13;100347.27;104390;1254;61417;-60
2023/09/06 00:30:21;;;;;;;5.50;4.90;;;;;;;17.32;89.45;100345.98;104299;1268;59968;-60
2023/09/06 00:32:52;;;;;;;5.80;5.20;;;;;;;17.32;89.76;100343.32;107001;1254;72480;-61
2023/09/06 00:35:20;;;;;;;5.60;4.70;;;;;;;17.29;90.48;100343.50;104630;1265;69977;-60
2023/09/06 00:37:47;;;;;;;6.20;5.10;;;;;;;17.28;90.44;100341.27;104322;1257;73041;-60
2023/09/06 00:40:23;;;;;;;5.70;4.60;;;;;;;17.23;90.68;100337.98;104294;1258;61542;-60
2023/09/06 00:42:53;;;;;;;5.20;4.80;;;;;;;17.21;92.01;100342.04;104277;1253;61255;-60
2023/09/06 00:45:26;;;;;;;6.90;5.80;;;;;;;17.21;92.02;100340.28;104294;1276;72837;-60
2023/09/06 00:47:55;;;;;;;5.70;5.10;;;;;;;17.20;92.81;100344.20;104414;1257;70089;-60
2023/09/06 00:50:22;;;;;;;7.50;5.30;;;;;;;17.19;92.44;100346.94;104234;1275;72976;-60
2023/09/06 00:52:50;;;;;;;8.20;4.50;;;;;;;17.16;92.77;100347.81;104252;1254;61692;-60
2023/09/06 00:55:19;;;;;;;8.00;5.40;;;;;;;17.15;92.57;100353.55;104407;1259;59875;-60
2023/09/06 00:57:46;;;;;;;6.20;4.90;;;;;;;17.13;93.07;100351.38;104337;1276;73085;-60
2023/09/06 01:00:22;;;;;;;5.00;4.30;;;;;;;17.12;93.70;100350.70;104309;1253;68364;-60
2023/09/06 01:02:49;;;;;;;7.20;5.30;;;;;;;17.11;93.71;100349.73;104248;1269;73002;-60
2023/09/06 01:05:19;;;;;;;5.10;4.60;;;;;;;17.10;93.86;100352.93;104305;1253;61552;-60
2023/09/06 01:07:57;;;;;;;7.80;5.20;;;;;;;17.08;93.77;100352.39;104583;1252;60104;-60
2023/09/06 01:10:25;;;;;;;10.30;4.80;;;;;;;17.06;94.11;100351.59;104265;1257;73460;-60
2023/09/06 01:12:54;;;;;;;6.30;5.00;;;;;;;17.01;94.91;100351.52;104335;1260;70081;-60
2023/09/06 01:15:22;;;;;;;6.00;5.10;;;;;;;16.97;96.30;100351.95;104481;1257;71781;-60
2023/09/06 01:17:49;;;;;;;5.20;4.70;;;;;;;16.94;96.93;100346.43;104423;1267;60671;-60
2023/09/06 01:20:33;;;;;;;6.20;4.80;;;;;;;16.92;97.94;100344.09;104309;1272;59859;-61
2023/09/06 01:23:06;;;;;;;5.60;4.90;;;;;;;16.92;99.02;100348.88;104248;1260;73610;-61
2023/09/06 01:25:33;;;;;;;6.20;4.70;;;;;;;16.92;98.12;100344.80;104292;1257;70024;-60
2023/09/06 01:28:00;;;;;;;5.90;5.10;;;;;;;16.92;98.16;100342.48;104664;1265;72609;-61
2023/09/06 01:30:29;;;;;;;5.70;5.10;;;;;;;16.93;98.59;100339.08;104398;1258;61696;-60
2023/09/06 01:32:56;;;;;;;5.20;4.70;;;;;;;16.96;99.27;100339.09;104386;1266;59892;-61
2023/09/06 01:35:23;;;;;;;6.40;5.10;;;;;;;16.98;99.45;100338.44;108415;1252;73231;-62
2023/09/06 01:37:53;;;;;;;7.20;5.10;;;;;;;17.00;99.73;100339.75;104717;1257;69399;-62
2023/09/06 01:40:20;;;;;;;5.70;5.00;;;;;;;17.00;99.83;100338.13;104347;1275;73135;-61
2023/09/06 01:42:47;;;;;;;5.40;4.60;;;;;;;17.03;99.88;100341.86;104488;1269;61540;-64
2023/09/06 01:45:17;;;;;;;6.50;4.60;;;;;;;17.04;99.92;100341.80;104526;1262;59740;-62
2023/09/06 01:47:46;;;;;;;6.70;5.00;;;;;;;17.04;99.99;100341.95;104277;1257;73287;-62
2023/09/06 01:50:15;;;;;;;5.70;5.10;;;;;;;17.04;100.00;100339.84;104317;1257;69146;-61
2023/09/06 01:52:42;;;;;;;4.70;4.30;;;;;;;17.03;100.00;100341.31;104361;1252;71589;-60
2023/09/06 01:55:09;;;;;;;5.90;5.00;;;;;;;17.02;100.00;100342.23;104575;1256;61510;-61
2023/09/06 01:57:36;;;;;;;4.90;4.50;;;;;;;17.03;100.00;100339.94;104375;1270;60217;-61
2023/09/06 02:00:25;;;;;;;6.30;5.10;;;;;;;17.06;100.00;100336.91;104324;1257;73856;-61
2023/09/06 02:02:51;;;;;;;6.00;4.40;;;;;;;17.09;100.00;100336.18;104427;1267;68823;-62
2023/09/06 02:05:18;;;;;;;5.80;4.70;;;;;;;17.08;100.00;100336.79;104446;1256;72372;-62
2023/09/06 02:07:47;;;;;;;5.20;4.70;;;;;;;17.03;100.00;100333.21;104255;1254;61497;-61
2023/09/06 02:10:14;;;;;;;6.00;4.30;;;;;;;17.00;100.00;100334.94;104277;1259;59953;-66
2023/09/06 02:12:41;;;;;;;5.80;4.60;;;;;;;16.99;100.00;100333.27;104319;1253;72962;-60
2023/09/06 02:15:10;;;;;;;5.10;4.60;;;;;;;16.96;100.00;100338.02;104471;1253;69692;-61
2023/09/06 02:17:39;;;;;;;5.00;4.50;;;;;;;16.93;100.00;100334.97;104403;1254;72949;-61
2023/09/06 02:20:25;;;;;;;5.40;4.70;;;;;;;16.91;100.00;100336.50;104293;1258;61872;-60
2023/09/06 02:22:56;;;;;;;5.40;4.60;;;;;;;16.89;100.00;100338.41;104288;1273;59913;-61
2023/09/06 02:25:29;;;;;;;5.20;4.30;;;;;;;16.86;100.00;100338.23;104378;1256;72766;-61
2023/09/06 02:27:56;;;;;;;6.50;4.50;;;;;;;16.82;100.00;100336.00;104506;1277;68301;-60
2023/09/06 02:30:23;;;;;;;7.40;4.00;;;;;;;16.81;100.00;100335.63;104428;1268;71313;-61
2023/09/06 02:32:51;;;;;;;5.60;4.50;;;;;;;16.82;100.00;100337.41;104495;1256;61834;-60
2023/09/06 02:35:20;;;;;;;5.90;4.60;;;;;;;16.81;100.00;100342.23;104314;1257;59878;-61
2023/09/06 02:37:47;;;;;;;5.40;4.60;;;;;;;16.82;100.00;100342.35;104631;1253;72800;-60
2023/09/06 02:40:17;;;;;;;4.80;4.30;;;;;;;16.81;100.00;100340.97;104415;1257;69228;-60
2023/09/06 02:42:51;;;;;;;5.30;4.60;;;;;;;16.78;100.00;100342.56;104297;1253;73102;-60
2023/09/06 02:45:18;;;;;;;7.50;5.10;;;;;;;16.79;100.00;100345.89;104304;1271;61403;-60
2023/09/06 02:47:49;;;;;;;5.30;4.70;;;;;;;16.78;100.00;100344.17;104424;1253;60778;-61
2023/09/06 02:50:17;;;;;;;5.40;4.90;;;;;;;16.80;100.00;100343.89;104299;1259;73019;-61
2023/09/06 02:52:45;;;;;;;6.50;4.30;;;;;;;16.78;100.00;100345.00;104470;1256;69695;-60
2023/09/06 02:55:13;;;;;;;5.40;4.60;;;;;;;16.80;100.00;100345.98;104557;1259;72966;-60
2023/09/06 02:57:43;;;;;;;4.60;4.20;;;;;;;16.77;100.00;100341.92;104883;1253;61708;-59
2023/09/06 03:00:29;;;;;;;6.00;4.70;;;;;;;16.73;100.00;100337.54;104718;1253;60534;-62
2023/09/06 03:02:58;;;;;;;7.20;4.20;;;;;;;16.70;100.00;100341.77;104549;1258;73373;-59
2023/09/06 03:05:27;;;;;;;5.20;4.50;;;;;;;16.73;100.00;100342.15;104693;1258;68485;-59
2023/09/06 03:07:54;;;;;;;;;;;;;;;16.73;100.00;100342.46;104440;1259;73158;-59
2023/09/06 03:10:23;;;;;;;4.50;4.10;;;;;;;16.74;100.00;100341.56;104423;1258;61580;-59
2023/09/06 03:12:57;;;;;;;10.70;4.90;;;;;;;16.72;100.00;100341.63;104299;1257;59782;-59
2023/09/06 03:15:29;;;;;;;4.80;4.20;;;;;;;16.72;100.00;100337.94;104286;1275;74240;-59
2023/09/06 03:18:02;;;;;;;4.80;4.40;;;;;;;16.71;100.00;100339.55;104251;1275;70179;-59
2023/09/06 03:23:17;;;;;;;6.20;5.00;;;;;;;16.74;100.00;100342.05;104307;1254;61730;-59
2023/09/06 03:25:54;;;;;;;4.90;4.10;;;;;;;16.76;100.00;100341.27;104744;1252;60557;-59
2023/09/06 03:28:21;;;;;;;4.10;3.70;;;;;;;16.77;100.00;100339.28;104279;1252;74092;-68
2023/09/06 03:30:49;;;;;;;5.60;4.40;;;;;;;16.76;100.00;100340.92;104678;1257;69170;-64
2023/09/06 03:33:17;;;;;;;5.50;4.40;;;;;;;16.76;100.00;100341.07;104307;1260;72933;-64
2023/09/06 03:35:45;;;;;;;5.40;4.90;;;;;;;16.78;100.00;100342.03;104380;1275;61466;-64
2023/09/06 03:38:15;;;;;;;4.90;4.40;;;;;;;16.80;100.00;100343.19;106348;1255;60568;-63
2023/09/06 03:40:42;;;;;;;5.50;4.90;;;;;;;16.80;100.00;100344.76;104355;1275;73053;-62
2023/09/06 03:43:15;;;;;;;6.60;4.70;;;;;;;16.82;100.00;100344.85;104451;1261;68528;-61
2023/09/06 03:45:53;;;;;;;7.50;4.20;;;;;;;16.83;100.00;100344.79;104934;1253;71426;-60
2023/09/06 03:48:20;;;;;;;5.40;4.20;;;;;;;16.87;100.00;100345.45;104462;1258;61909;-60
2023/09/06 03:50:49;;;;;;;7.40;4.40;;;;;;;16.88;100.00;100348.89;104305;1253;60588;-60
2023/09/06 03:53:16;;;;;;;9.00;4.90;;;;;;;16.89;100.00;100347.05;104287;1254;73492;-60
2023/09/06 03:55:42;;;;;;;5.40;4.70;;;;;;;16.90;100.00;100348.99;104429;1258;69179;-60
2023/09/06 03:58:10;;;;;;;5.20;4.60;;;;;;;16.89;100.00;100352.71;104377;1253;72221;-60
2023/09/06 04:00:41;;;;;;;;;;;;;;;16.91;100.00;100354.59;104483;1254;61419;-60
2023/09/06 04:03:14;;;;;;;5.10;4.60;;;;;;;16.93;100.00;100356.79;104239;1275;59492;-60
2023/09/06 04:05:45;;;;;;;5.70;4.40;;;;;;;16.95;100.00;100356.33;104270;1257;74508;-60
2023/09/06 04:08:19;;;;;;;5.00;4.60;;;;;;;16.95;100.00;100360.91;104261;1256;70047;-60
2023/09/06 04:10:49;;;;;;;5.00;4.50;;;;;;;17.00;100.00;100362.41;104413;1268;73398;-61
2023/09/06 04:13:16;;;;;;;5.60;4.50;;;;;;;17.03;100.00;100359.88;104463;1259;61866;-61
2023/09/06 04:15:44;;;;;;;4.90;4.30;;;;;;;17.08;100.00;100362.27;104271;1258;60563;-59
2023/09/06 04:18:11;;;;;;;7.30;4.70;;;;;;;17.11;100.00;100362.25;104295;1257;73899;-59
2023/09/06 04:20:44;;;;;;;4.80;4.40;;;;;;;17.17;100.00;100364.77;104392;1254;69831;-58
2023/09/06 04:23:13;;;;;;;5.00;4.50;;;;;;;17.23;100.00;100368.33;104274;1258;73138;-59
2023/09/06 04:25:44;;;;;;;4.60;4.20;;;;;;;17.28;100.00;100367.11;104290;1267;61771;-59
2023/09/06 04:28:15;;;;;;;5.00;4.50;;;;;;;17.37;100.00;100369.27;104275;1271;60485;-59
2023/09/06 04:30:43;;;;;;;;;;;;;;;17.44;100.00;100370.77;104419;1257;72853;-59
2023/09/06 04:33:12;;;;;;;5.30;4.20;;;;;;;17.45;100.00;100373.00;104324;1258;69464;-60
2023/09/06 04:35:43;;;;;;;7.90;4.50;;;;;;;17.48;100.00;100367.18;105066;1254;71408;-60
2023/09/06 04:38:14;;;;;;;6.80;4.30;;;;;;;17.55;100.00;100365.54;106089;1256;61529;-60
2023/09/06 04:40:45;;;;;;;5.90;4.60;;;;;;;17.61;100.00;100370.16;104475;1254;60531;-59
2023/09/06 04:43:15;;;;;;;7.50;4.20;;;;;;;17.72;100.00;100370.16;104410;1261;73956;-58
2023/09/06 04:45:42;;;;;;;4.60;3.70;;;;;;;17.80;100.00;100374.81;104306;1275;69985;-59
2023/09/06 04:48:16;;;;;;;6.70;4.50;;;;;;;17.89;100.00;100377.15;104270;1275;73066;-59
2023/09/06 04:50:45;;;;;;;7.70;4.80;;;;;;;17.92;100.00;100375.85;104526;1253;61672;-59
2023/09/06 04:53:18;;;;;;;5.40;4.30;;;;;;;18.01;100.00;100379.42;104308;1253;60565;-59
2023/09/06 04:55:49;;;;;;;6.20;4.60;;;;;;;18.11;100.00;100378.99;108063;1253;73539;-60
2023/09/06 04:58:19;;;;;;;5.40;4.40;;;;;;;18.21;100.00;100380.68;104881;1260;69452;-59
2023/09/06 05:00:49;;;;;;;5.50;4.30;;;;;;;18.27;100.00;100379.04;104393;1277;72247;-59
2023/09/06 05:03:19;;;;;;;5.50;4.50;;;;;;;18.35;100.00;100381.59;104438;1271;61395;-59
2023/09/06 05:05:51;;;;;;;7.40;4.90;;;;;;;18.41;100.00;100385.95;104463;1257;60646;-59
2023/09/06 05:08:22;;;;;;;8.60;5.20;;;;;;;18.51;100.00;100384.66;104300;1260;74134;-59
2023/09/06 05:10:50;;;;;;;7.30;5.10;;;;;;;18.60;100.00;100382.95;104427;1259;69373;-58
2023/09/06 05:13:18;;;;;;;6.30;5.60;;;;;;;18.67;100.00;100383.38;104298;1258;72438;-58
2023/09/06 05:15:46;;;;;;;6.70;5.60;;;;;;;18.57;100.00;100382.31;104272;1258;61563;-58
2023/09/06 05:18:14;;;;;;;8.10;6.70;;;;;;;18.60;100.00;100382.10;104244;1254;60458;-59
2023/09/06 05:20:42;;;;;;;10.40;6.00;;;;;;;18.66;100.00;100377.98;104411;1267;73845;-59
2023/09/06 05:23:14;;;;;;;9.30;7.00;;;;;;;18.84;100.00;100379.29;104308;1271;70024;-59
2023/09/06 05:25:42;;;;;;;11.90;7.30;;;;;;;18.84;100.00;100376.98;104298;1258;72266;-59
2023/09/06 05:28:15;;;;;;;8.20;7.30;;;;;;;18.87;100.00;100374.71;104400;1253;62100;-60
2023/09/06 05:30:45;;;;;;;9.00;7.40;;;;;;;18.95;100.00;100375.06;104449;1256;60496;-61
2023/09/06 05:33:15;;;;;;;13.20;8.60;;;;;;;19.07;100.00;100375.84;104686;1253;73278;-60
2023/09/06 05:35:42;;;;;;;11.00;8.10;;;;;;;19.20;100.00;100372.33;108313;1255;71082;-60
2023/09/06 05:38:10;;;;;;;;;;;;;;;19.26;100.00;100373.15;105410;1259;73125;-60
2023/09/06 05:40:40;;;;;;;8.70;7.70;;;;;;;19.34;100.00;100372.09;104440;1259;61928;-59
2023/09/06 05:43:08;;;;;;;10.70;7.70;;;;;;;19.41;100.00;100373.74;104334;1254;60525;-60
2023/09/06 05:45:35;;;;;;;13.80;8.10;;;;;;;19.51;100.00;100372.52;104290;1253;74588;-60
2023/09/06 05:48:05;;;;;;;8.00;6.90;;;;;;;19.63;100.00;100376.88;104334;1276;69327;-59
2023/09/06 05:50:34;;;;;;;8.50;7.10;;;;;;;19.75;100.00;100377.84;104390;1259;72570;-60
2023/09/06 05:53:01;;;;;;;7.70;6.60;;;;;;;20.04;99.21;100377.61;104258;1256;61512;-59
2023/09/06 05:55:28;;;;;;;7.90;6.20;;;;;;;20.22;97.50;100377.23;104219;1256;60944;-60
2023/09/06 05:57:57;;;;;;;9.30;6.00;;;;;;;20.36;96.98;100380.51;104208;1258;74242;-60
2023/09/06 06:00:28;;;;;;;9.60;5.40;;;;;;;20.47;93.21;100378.13;104214;1261;69847;-60
2023/09/06 06:02:57;;;;;;;7.80;5.10;;;;;;;20.59;90.11;100375.48;104202;1277;72416;-60
2023/09/06 06:05:24;;;;;;;4.90;4.50;;;;;;;20.69;89.60;100377.94;104290;1272;60739;-60
2023/09/06 06:07:52;;;;;;;7.00;5.40;;;;;;;20.80;90.68;100375.72;104302;1271;59645;-60
2023/09/06 06:10:19;;;;;;;8.20;4.80;;;;;;;20.89;89.80;100379.12;104317;1256;73501;-60
2023/09/06 06:12:46;;;;;;;6.40;5.30;;;;;;;21.01;89.66;100378.09;104243;1259;70301;-60
2023/09/06 06:15:13;;;;;;;5.50;4.60;;;;;;;21.17;88.59;100381.38;104270;1256;72866;-60
2023/09/06 06:17:40;;;;;;;4.60;4.20;;;;;;;21.28;85.96;100376.41;104246;1254;61696;-60
2023/09/06 06:20:11;;;;;;;8.80;3.80;;;;;;;21.47;84.67;100382.28;104244;1277;60493;-60
2023/09/06 06:22:41;;;;;;;7.80;3.70;;;;;;;21.68;82.78;100383.87;104291;1258;74263;-60
2023/09/06 06:25:10;;;;;;;6.90;3.50;;;;;;;21.85;80.97;100384.42;104248;1270;70001;-61
2023/09/06 06:27:37;;;;;;;4.10;3.30;;;;;;;21.98;79.19;100381.36;104333;1256;72709;-60
2023/09/06 06:30:07;;;;;;;3.30;3.00;;;;;;;22.12;78.66;100379.88;104309;1254;61939;-60
2023/09/06 06:32:34;;;;;;;5.00;3.30;;;;;;;22.25;80.02;100382.15;104281;1259;60546;-60
2023/09/06 06:35:12;;;;;;;8.50;3.40;;;;;;;22.38;78.18;100379.13;104337;1277;73866;-59
2023/09/06 06:37:39;;;;;;;7.10;3.70;;;;;;;22.51;77.62;100375.75;106607;1255;68358;-60
2023/09/06 06:40:06;;;;;;;4.50;3.10;;;;;;;22.65;75.83;100377.30;104441;1258;72233;-60
2023/09/06 06:42:36;;;;;;;4.50;3.30;;;;;;;22.75;75.74;100379.72;104400;1274;61706;-60
2023/09/06 06:45:06;;;;;;;3.50;3.20;;;;;;;22.81;76.11;100381.52;104360;1257;60559;-60
2023/09/06 06:47:33;;;;;;;5.20;3.50;;;;;;;22.82;75.39;100381.81;104441;1256;73712;-60
2023/09/06 06:50:06;;;;;;;5.00;3.20;;;;;;;22.81;76.06;100382.95;104313;1274;70154;-60
2023/09/06 06:52:36;;;;;;;6.00;3.60;;;;;;;22.80;76.00;100389.11;104260;1278;72514;-60
2023/09/06 06:55:06;;;;;;;10.40;4.10;;;;;;;22.79;76.35;100390.63;104264;1274;60448;-60
2023/09/06 06:57:35;;;;;;;10.00;4.20;;;;;;;22.77;74.72;100390.27;104897;1253;59763;-61
2023/09/06 07:00:11;;;;;;;5.70;3.90;;;;;;;22.79;75.81;100392.55;108282;1256;73341;-59
2023/09/06 07:02:38;;;;;;;4.10;3.70;;;;;;;22.87;76.01;100388.14;108451;1253;68795;-59
2023/09/06 07:05:05;;;;;;;3.80;3.30;;;;;;;22.95;75.33;100387.70;104958;1257;72431;-60
2023/09/06 07:07:32;;;;;;;4.30;3.30;;;;;;;23.04;74.26;100384.86;104440;1254;60564;-60
2023/09/06 07:09:59;;;;;;;5.10;3.20;;;;;;;23.13;72.99;100390.16;104337;1277;60560;-60
2023/09/06 07:12:29;;;;;;;3.50;3.20;;;;;;;23.18;71.86;100384.08;104421;1259;73610;-60
2023/09/06 07:14:56;;;;;;;4.70;3.20;;;;;;;23.24;70.61;100384.25;104287;1277;70168;-60
2023/09/06 07:17:22;;;;;;;10.30;3.20;;;;;;;23.30;69.79;100378.02;104256;1256;73041;-60
2023/09/06 07:19:49;;;;;;;4.50;2.90;;;;;;;23.37;69.28;100372.98;104299;1277;60560;-60
2023/09/06 07:22:16;;;;;;;4.20;3.20;;;;;;;23.48;69.13;100373.30;104300;1259;60536;-60
2023/09/06 07:24:43;;;;;;;4.50;3.40;;;;;;;23.59;68.06;100372.00;104322;1254;74334;-60
2023/09/06 07:27:10;;;;;;;6.30;3.00;;;;;;;23.68;67.26;100372.95;104288;1257;70014;-59
2023/09/06 07:29:37;;;;;;;3.30;2.80;;;;;;;23.80;67.35;100375.16;104275;1258;71960;-60
2023/09/06 07:32:04;;;;;;;6.00;3.40;;;;;;;23.95;67.05;100368.92;104336;1256;60570;-60
2023/09/06 07:34:32;;;;;;;4.70;3.10;;;;;;;24.13;66.12;100369.51;104333;1258;60463;-60
2023/09/06 07:36:59;;;;;;;;;;;;;;;24.27;66.72;100369.13;104398;1277;73626;-60
2023/09/06 07:39:25;;;;;;;4.70;3.50;;;;;;;24.37;66.26;100365.71;104347;1257;69940;-60
2023/09/06 07:41:54;;;;;;;3.50;3.20;;;;;;;24.44;64.05;100364.06;104344;1256;73192;-60
2023/09/06 07:44:20;;;;;;;6.30;3.00;;;;;;;24.54;63.40;100362.08;104422;1257;60475;-61
2023/09/06 07:46:48;;;;;;;3.50;2.80;;;;;;;24.62;62.61;100360.50;106022;1254;60458;-59
2023/09/06 07:49:16;;;;;;;4.00;3.20;;;;;;;24.68;64.01;100357.23;108325;1253;72578;-59
2023/09/06 07:51:43;;;;;;;3.40;2.80;;;;;;;24.75;63.31;100358.38;106171;1257;69635;-58
2023/09/06 07:54:10;;;;;;;7.00;2.90;;;;;;;24.80;62.86;100363.89;104273;1257;73038;-60
2023/09/06 07:56:40;;;;;;;5.40;2.90;;;;;;;24.84;62.37;100358.33;104265;1259;60914;-60
2023/09/06 07:59:10;;;;;;;4.60;2.70;;;;;;;24.82;59.60;100362.25;104302;1258;60451;-61
2023/09/06 08:01:37;;;;;;;6.30;2.90;;;;;;;24.87;60.54;100358.91;104302;1272;73496;-60
2023/09/06 08:04:04;;;;;;;4.90;3.00;;;;;;;24.90;60.69;100358.14;104304;1259;68091;-60
2023/09/06 08:06:31;;;;;;;4.30;2.90;;;;;;;24.94;60.04;100352.04;104328;1259;71367;-61
2023/09/06 08:08:58;;;;;;;5.40;2.70;;;;;;;24.98;60.10;100350.38;104270;1274;60850;-60
2023/09/06 08:11:28;;;;;;;6.00;3.30;;;;;;;25.03;60.93;100350.66;104267;1259;60559;-60
2023/09/06 08:13:55;;;;;;;6.50;3.00;;;;;;;25.07;60.00;100350.11;104236;1256;73902;-61
2023/09/06 08:16:22;;;;;;;4.70;3.40;;;;;;;25.11;59.60;100349.55;104315;1260;69704;-61
2023/09/06 08:18:50;;;;;;;5.60;3.10;;;;;;;25.15;59.03;100346.88;104271;1276;73075;-60
2023/09/06 08:21:17;;;;;;;5.20;3.00;;;;;;;25.18;59.40;100343.45;104319;1268;60530;-60
2023/09/06 08:23:43;;;;;;;5.00;3.40;;;;;;;25.30;59.00;100342.02;104347;1273;60528;-61
2023/09/06 08:26:11;;;;;;;3.80;3.30;;;;;;;25.35;57.26;100343.77;104317;1275;74263;-60
2023/09/06 08:28:38;;;;;;;3.30;3.00;;;;;;;25.38;57.27;100341.17;104287;1259;70087;-60
2023/09/06 08:31:05;;;;;;;5.70;3.40;;;;;;;25.41;57.68;100342.27;104257;1258;72016;-60
2023/09/06 08:33:32;;;;;;;3.80;3.30;;;;;;;25.48;57.88;100339.13;104275;1277;60213;-61
2023/09/06 08:35:59;;;;;;;5.20;3.30;;;;;;;25.59;57.72;100338.98;104362;1269;60535;-61
2023/09/06 08:38:28;;;;;;;5.50;3.30;;;;;;;25.69;56.32;100338.80;107305;1255;73843;-59
2023/09/06 08:40:55;;;;;;;;;;;;;;;25.77;57.30;100340.66;105469;1254;70232;-59
2023/09/06 08:43:23;;;;;;;5.30;3.00;;;;;;;25.85;55.69;100337.77;108289;1254;71285;-59
2023/09/06 08:45:50;;;;;;;4.00;3.00;;;;;;;25.84;55.28;100334.61;105205;1258;59821;-58
2023/09/06 08:48:17;;;;;;;3.80;3.30;;;;;;;25.92;55.32;100333.48;104412;1259;60464;-58
2023/09/06 08:50:46;;;;;;;10.20;3.10;;;;;;;26.02;54.91;100328.75;104481;1258;74154;-60
2023/09/06 08:53:13;;;;;;;4.70;3.30;;;;;;;26.11;54.58;100323.63;104346;1256;68222;-61
2023/09/06 08:55:42;;;;;;;4.40;3.10;;;;;;;26.17;54.39;100324.64;104220;1258;73042;-60
2023/09/06 08:58:09;;;;;;;3.40;2.90;;;;;;;26.23;54.21;100326.92;104260;1277;60540;-60
2023/09/06 09:00:36;;;;;;;5.00;2.40;;;;;;;26.30;53.79;100328.80;104186;1256;60525;-60
2023/09/06 09:03:03;;;;;;;3.40;2.30;;;;;;;26.36;53.89;100327.98;108021;1254;72528;-61
2023/09/06 09:05:30;;;;;;;3.00;2.60;;;;;;;26.39;53.21;100331.12;108438;1253;69618;-61
2023/09/06 09:07:59;;;;;;;2.60;2.20;;;;;;;26.43;52.10;100321.33;108443;1253;72416;-60
2023/09/06 09:10:28;;;;;;;;;;;;;;;26.51;51.15;100325.12;108431;1253;59995;-60
2023/09/06 09:12:58;;;;;;;2.90;2.60;;;;;;;26.58;50.10;100321.33;106237;1259;60559;-62
2023/09/06 09:15:27;;;;;;;7.50;2.60;;;;;;;26.64;50.69;100318.20;104556;1254;73512;-61
2023/09/06 09:17:55;;;;;;;5.70;2.30;;;;;;;26.75;50.88;100312.11;104366;1276;70036;-60
2023/09/06 09:20:25;;;;;;;5.30;2.80;;;;;;;26.89;50.52;100310.91;104244;1258;72943;-61
2023/09/06 09:23:01;;;;;;;3.60;2.50;;;;;;;26.94;48.81;100311.04;104295;1259;60560;-60
2023/09/06 09:25:28;;;;;;;3.30;2.90;;;;;;;26.98;48.22;100301.85;104267;1259;60614;-61
2023/09/06 09:27:56;;;;;;;2.70;2.40;;;;;;;26.93;47.67;100301.34;104308;1259;73517;-60
2023/09/06 09:30:24;;;;;;;2.50;2.30;;;;;;;26.93;48.06;100298.81;104386;1253;70118;-61
2023/09/06 09:32:58;;;;;;;3.10;2.50;;;;;;;27.00;48.33;100300.42;104280;1260;73274;-60
2023/09/06 09:35:25;;;;;;;3.40;2.40;;;;;;;27.07;48.00;100301.88;104370;1274;60680;-60
2023/09/06 09:37:52;;;;;;;2.80;2.50;;;;;;;27.06;47.68;100292.77;104304;1254;60564;-61
2023/09/06 09:40:32;;;;;;;3.50;2.20;;;;;;;27.14;48.45;100291.45;104364;1258;74022;-61
2023/09/06 09:43:19;;;;;;;3.50;2.10;;;;;;;27.31;47.96;100296.41;104356;1275;70882;-60
2023/09/06 09:45:46;;;;;;;2.90;1.70;;;;;;;27.41;47.91;100298.77;104391;1258;72636;-60
2023/09/06 09:48:15;;;;;;;5.60;2.60;;;;;;;27.52;46.48;100296.53;104331;1265;60428;-60
2023/09/06 09:50:43;;;;;;;2.20;1.90;;;;;;;27.59;45.73;100294.92;105180;1258;60403;-61
2023/09/06 09:53:10;;;;;;;;;;;;;;;27.66;46.11;100286.66;105742;1261;73863;-60
2023/09/06 09:55:49;;;;;;;2.70;1.90;;;;;;;27.73;46.32;100290.73;104309;1275;69884;-62
2023/09/06 09:58:19;;;;;;;3.60;2.20;;;;;;;27.84;45.85;100286.16;104362;1270;72377;-60
2023/09/06 10:00:49;;;;;;;2.90;2.40;;;;;;;27.95;44.84;100292.55;104295;1255;60579;-60
2023/09/06 10:03:18;;;;;;;3.40;2.50;;;;;;;27.99;44.38;100289.56;104291;1252;59542;-60
2023/09/06 10:05:45;;;;;;;4.40;2.50;;;;;;;28.00;44.76;100294.98;104290;1277;73485;-59
2023/09/06 10:08:12;;;;;;;4.50;2.20;;;;;;;27.98;43.23;100291.89;104320;1258;69589;-60
2023/09/06 10:10:40;;;;;;;2.20;2.00;;;;;;;27.96;43.98;100286.35;104314;1271;72345;-60
2023/09/06 10:13:10;;;;;;;3.80;1.90;;;;;;;28.02;45.01;100286.70;104246;1254;60551;-60
2023/09/06 10:15:37;;;;;;;2.40;2.20;;;;;;;28.12;44.62;100283.56;104305;1259;60571;-60
2023/09/06 10:18:05;;;;;;;3.10;2.00;;;;;;;28.23;44.96;100289.34;104305;1259;73598;-60
2023/09/06 10:20:34;;;;;;;2.10;2.00;;;;;;;28.35;44.16;100288.73;104233;1254;69286;-59
2023/09/06 10:23:01;;;;;;;3.80;2.40;;;;;;;28.44;43.75;100288.09;104229;1259;71772;-60
2023/09/06 10:25:28;;;;;;;2.70;2.00;;;;;;;28.48;43.66;100281.35;104321;1259;60909;-60
2023/09/06 10:27:55;;;;;;;3.60;2.30;;;;;;;28.53;44.01;100285.37;104263;1276;59944;-59
2023/09/06 10:30:50;;;;;;;5.20;2.40;;;;;;;28.55;43.15;100285.13;104245;1276;74317;-60
2023/09/06 10:33:40;;;;;;;2.20;2.00;;;;;;;28.56;42.68;100281.98;104326;1276;69129;-60
2023/09/06 10:36:08;;;;;;;4.10;2.40;;;;;;;28.57;42.97;100285.08;104208;1257;73005;-60
2023/09/06 10:39:06;;;;;;;2.40;2.00;;;;;;;28.59;43.11;100281.88;104353;1256;60724;-59
2023/09/06 10:41:33;;;;;;;2.50;2.30;;;;;;;28.67;42.86;100280.02;104298;1259;60444;-59
2023/09/06 10:44:04;;;;;;;3.10;2.40;;;;;;;28.74;43.10;100281.48;104830;1258;72785;-60
2023/09/06 10:46:35;;;;;;;3.70;2.80;;;;;;;28.78;42.48;100282.33;104335;1277;70658;-60
2023/09/06 10:49:14;;;;;;;3.90;2.50;;;;;;;28.82;42.19;100279.39;104273;1267;72691;-60
2023/09/06 10:52:04;;;;;;;2.40;2.20;;;;;;;28.79;42.98;100273.33;104287;1256;60583;-59
2023/09/06 10:54:34;;;;;;;4.30;2.60;;;;;;;28.82;43.03;100270.52;104272;1260;60492;-60
2023/09/06 10:57:03;;;;;;;2.70;2.50;;;;;;;28.90;43.14;100269.77;104272;1260;74307;-59
2023/09/06 11:02:15;;;;;;;3.00;2.50;;;;;;;28.48;44.44;100267.11;101477;1296;601120;-59
2023/09/06 11:04:45;;;;;;;3.60;2.40;;;;;;;28.88;42.25;100258.23;104000;1267;59928;-59
2023/09/06 11:07:13;;;;;;;;;;;;;;;28.96;42.26;100257.52;107629;1257;59767;-59
2023/09/06 11:09:43;;;;;;;3.90;2.40;;;;;;;29.09;41.30;100261.14;105405;1257;72446;-60
2023/09/06 11:12:11;;;;;;;2.60;2.40;;;;;;;29.06;41.91;100256.77;103956;1264;70011;-59
2023/09/06 11:14:40;;;;;;;3.70;2.20;;;;;;;29.05;41.63;100254.91;103917;1263;308178;-59
2023/09/06 11:17:08;;;;;;;5.40;2.70;;;;;;;29.05;41.46;100249.00;104124;1257;60149;-59
2023/09/06 11:19:36;;;;;;;3.80;2.40;;;;;;;29.03;41.18;100249.77;104132;1261;60391;-59
2023/09/06 11:22:09;;;;;;;3.00;2.40;;;;;;;29.00;41.36;100241.46;104273;1264;71818;-58
2023/09/06 11:24:37;;;;;;;4.80;2.10;;;;;;;28.87;40.91;100240.89;104122;1272;68359;-59
2023/09/06 11:27:22;;;;;;;3.00;1.90;;;;;;;28.78;41.22;100246.07;104010;1270;73411;-59
2023/09/06 11:29:59;;;;;;;3.20;2.40;;;;;;;28.76;41.33;100244.79;104200;1278;61807;-59
2023/09/06 11:32:27;;;;;;;6.20;2.00;;;;;;;28.73;42.42;100242.58;104192;1262;59775;-59